Garden City, GA

5:19 AM EDT on August 20, 2014 (GMT -0400)
Savannah International | Change Station
CLOSE
Current Station
Airport
Location: Savannah,
Elevation: 49 ft
Nearby Weather Stations

Elev 49 ft 32.13 °N, 81.20 °W | Updated 26 minutes ago

Clear
Clear
73 °F
Feels Like 73 °F
N
5
Wind Variable Wind from WSW

Today
High -- | Low -- °F
--% Chance of Precip.
Yesterday
High -- | Low -- °F
Precip. -- in
6:52 AM 8:03 PM
Waning Crescent, 23% visible
Pressure 29.94 in
Visibility 10.0 miles
Clouds Clear
Dew Point 70 °F
Humidity 90%
Rainfall 0.00 in
Snow Depth Not available.
UV 0 out of 12
Pollen 5.50 out of 12
Air Quality Not available.
Flu Activity Not available.
METAR KSAV 200853Z AUTO 25004KT 10SM CLR 23/21 A2994 RMK AO2 SLP139 T02280211 55005 TSNO

More Conditions Fewer Conditions

Pressure 29.94 in
Visibility 10.0 miles
Clouds Clear
Dew Point 70 °F
Humidity 90%
Rainfall 0.00 in
Snow Depth Not available.
UV 0 out of 12
Pollen 5.50 out of 12
Air Quality Not available.
Flu Activity Not available.
METAR KSAV 200853Z AUTO 25004KT 10SM CLR 23/21 A2994 RMK AO2 SLP139 T02280211 55005 TSNO

More Conditions Fewer Conditions

10-Day Weather Forecast

Almanac

Astronomy

Aug. 20, 2014 Rise Set
Actual Time 6:52 AM EDT 8:03 PM EDT
Civil Twilight 6:26 AM EDT 8:28 PM EDT
Nautical Twilight 5:56 AM EDT 8:59 PM EDT
Astronomical Twilight 5:25 AM EDT 9:30 PM EDT
Moon 2:37 AM EDT 4:41 PM EDT
Length of Visible Light 14h 01m
Length of Day
13h 10m
Tomorrow will be 1m 46s shorter.
Waning Crescent, 23% of the Moon is Illuminated
Today
Waning Crescent
Aug 25
New
Sep 2
First Quarter
Sep 8
Full
Sep 15
Last Quarter

Today's Extremes

State Highs State Lows

Community

WunderPhotos

Upload Photos

1,745,604 photos uploaded!

Nearby

Snow Depth

Station Depth Elevation
No new snow has been reported.

Earthquake Activity

City Distance Mag. Time & Date
No recent earthquake activity has been reported nearby.
Minimum magnitude displayed is 2.5.

Coastal Water Temperatures

Place Temperature
No Stations Reporting

Nearby Weather Stations